Time;durP1;ratioP1;P1;durP2;ratioP2;P2;SDS_P1;SDS_P2;PMS_P1;PMS_P2;Temp;Humidity;BMP_temperature;BMP_pressure;BME280_temperature;BME280_humidity;BME280_pressure;Samples;Min_cycle;Max_cycle;Signal;HPM_P1;HPM_P2
2022/03/25 00:02:13;;;;;;;7.45;2.65;;;20.50;91.40;;;;;;5115820;27;20027;-68
2022/03/25 00:04:40;;;;;;;8.90;2.53;;;20.50;90.50;;;;;;5115884;27;20026;-68
2022/03/25 00:07:10;;;;;;;11.07;3.05;;;20.50;90.30;;;;;;5134063;27;20035;-68
2022/03/25 00:09:38;;;;;;;11.40;2.83;;;20.50;90.00;;;;;;5116427;27;20032;-68
2022/03/25 00:12:06;;;;;;;10.63;2.47;;;20.60;89.30;;;;;;5133609;27;20035;-70
2022/03/25 00:14:34;;;;;;;8.85;2.55;;;20.60;89.60;;;;;;5116008;27;20372;-69
2022/03/25 00:17:01;;;;;;;10.40;2.40;;;20.60;87.90;;;;;;5115846;27;20043;-69
2022/03/25 00:19:28;;;;;;;9.60;3.00;;;20.60;87.40;;;;;;5115257;27;20031;-69
2022/03/25 00:21:56;;;;;;;12.70;2.35;;;20.60;87.70;;;;;;5098554;27;20057;-70
2022/03/25 00:24:24;;;;;;;8.20;2.42;;;20.60;87.90;;;;;;5115224;27;20072;-70
2022/03/25 00:26:51;;;;;;;7.72;2.30;;;20.60;87.40;;;;;;5133230;27;20035;-70
2022/03/25 00:29:18;;;;;;;11.25;2.85;;;20.60;87.90;;;;;;5133433;27;20482;-70
2022/03/25 00:31:46;;;;;;;9.00;2.47;;;20.60;88.20;;;;;;5115213;27;20436;-69
2022/03/25 00:34:13;;;;;;;12.98;3.55;;;20.60;87.10;;;;;;5132814;27;20023;-68
2022/03/25 00:36:40;;;;;;;12.50;3.03;;;20.70;88.70;;;;;;5098257;27;20020;-69
2022/03/25 00:39:08;;;;;;;8.55;2.30;;;20.70;87.40;;;;;;5132816;27;20026;-68
2022/03/25 00:41:36;;;;;;;10.63;2.30;;;20.70;87.70;;;;;;5098122;27;20076;-68
2022/03/25 00:44:07;;;;;;;12.45;2.75;;;20.70;88.20;;;;;;5114931;27;20023;-68
2022/03/25 00:46:34;;;;;;;;;;;20.60;87.50;;;;;;5098145;27;20062;-69
2022/03/25 00:49:01;;;;;;;7.35;2.25;;;20.70;88.20;;;;;;5133093;27;19907;-71
2022/03/25 00:51:28;;;;;;;8.45;2.35;;;20.70;87.80;;;;;;5097836;27;20040;-69
2022/03/25 00:53:55;;;;;;;10.32;2.90;;;20.60;88.30;;;;;;5114977;27;20031;-69
2022/03/25 00:56:24;;;;;;;9.20;2.47;;;20.60;87.40;;;;;;5114910;27;20489;-67
2022/03/25 00:58:51;;;;;;;9.80;2.40;;;20.60;87.80;;;;;;5114552;27;20059;-67
2022/03/25 01:01:19;;;;;;;13.82;2.65;;;20.60;86.40;;;;;;5132859;27;20023;-69
2022/03/25 01:03:46;;;;;;;15.55;2.85;;;20.70;87.50;;;;;;5132635;27;20262;-67
2022/03/25 01:06:14;;;;;;;10.98;2.85;;;20.70;87.50;;;;;;5132552;27;20130;-67
2022/03/25 01:08:41;;;;;;;15.43;3.65;;;20.80;86.80;;;;;;5114484;27;20028;-67
2022/03/25 01:11:08;;;;;;;16.23;3.00;;;20.80;88.50;;;;;;5132437;27;20457;-67
2022/03/25 01:13:35;;;;;;;16.13;2.83;;;20.90;87.60;;;;;;5114180;27;20139;-67
2022/03/25 01:16:03;;;;;;;13.15;2.53;;;21.00;87.00;;;;;;5132702;27;20429;-67
2022/03/25 01:18:30;;;;;;;8.45;2.50;;;21.00;85.60;;;;;;5114492;27;20055;-70
2022/03/25 01:20:58;;;;;;;9.90;2.45;;;21.10;86.50;;;;;;5114335;27;20023;-68
2022/03/25 01:23:26;;;;;;;10.77;2.50;;;21.20;86.00;;;;;;5132294;27;20143;-69
2022/03/25 01:25:53;;;;;;;9.15;2.40;;;21.20;85.40;;;;;;5097167;27;20040;-68
2022/03/25 01:28:21;;;;;;;12.40;3.03;;;21.10;86.00;;;;;;5114368;27;20441;-70
2022/03/25 01:30:49;;;;;;;13.45;3.08;;;21.10;85.20;;;;;;5114175;27;20469;-69
2022/03/25 01:33:18;;;;;;;11.55;2.75;;;21.10;85.10;;;;;;5132149;27;20035;-69
2022/03/25 01:35:45;;;;;;;12.10;2.78;;;21.10;84.40;;;;;;5132507;27;20354;-70
2022/03/25 01:38:13;;;;;;;10.07;2.50;;;21.10;85.50;;;;;;5113874;27;20096;-70
2022/03/25 01:40:40;;;;;;;9.20;2.50;;;21.20;84.90;;;;;;5132123;27;20429;-70
2022/03/25 01:43:08;;;;;;;11.75;2.90;;;21.20;84.60;;;;;;5113569;27;20059;-69
2022/03/25 01:45:37;;;;;;;12.70;2.35;;;21.10;85.30;;;;;;5132030;27;20035;-68
2022/03/25 01:48:09;;;;;;;11.25;3.13;;;21.20;85.40;;;;;;5131972;27;20019;-67
2022/03/25 01:50:36;;;;;;;5.80;2.40;;;21.10;82.20;;;;;;5080162;27;20155;-70
2022/03/25 01:53:04;;;;;;;13.93;2.60;;;21.20;81.30;;;;;;5113137;27;20041;-67
2022/03/25 01:55:38;;;;;;;8.55;2.45;;;21.20;81.50;;;;;;5131927;27;20489;-67
2022/03/25 01:58:06;;;;;;;16.08;3.08;;;21.30;81.50;;;;;;5113425;27;20035;-70
2022/03/25 02:00:33;;;;;;;10.43;2.88;;;21.30;82.30;;;;;;5114206;27;20080;-70
2022/03/25 02:03:00;;;;;;;9.90;2.58;;;21.30;82.30;;;;;;5113621;28;20038;-69
2022/03/25 02:05:27;;;;;;;12.35;2.20;;;21.40;81.40;;;;;;5113118;27;20074;-69
2022/03/25 02:07:54;;;;;;;7.80;2.38;;;21.50;80.30;;;;;;5113764;27;20113;-69
2022/03/25 02:10:22;;;;;;;13.73;2.20;;;21.50;79.00;;;;;;5113468;28;20474;-69
2022/03/25 02:12:49;;;;;;;20.73;2.83;;;21.60;77.30;;;;;;5131649;27;20039;-70
2022/03/25 02:15:17;;;;;;;13.57;2.50;;;21.60;78.30;;;;;;5131645;28;20030;-69
2022/03/25 02:17:44;;;;;;;7.15;2.53;;;21.60;79.00;;;;;;5131040;28;20023;-69
2022/03/25 02:20:12;;;;;;;12.50;2.13;;;21.70;77.80;;;;;;5096460;28;20031;-68
2022/03/25 02:22:40;;;;;;;15.40;3.15;;;21.80;79.60;;;;;;5131740;28;20038;-68
2022/03/25 02:25:11;;;;;;;10.93;2.33;;;21.80;79.20;;;;;;5131485;28;20106;-67
2022/03/25 02:27:38;;;;;;;6.82;1.88;;;21.80;79.10;;;;;;5131214;28;20093;-67
2022/03/25 02:30:09;;;;;;;10.48;1.90;;;21.70;78.60;;;;;;5131235;28;20469;-68
2022/03/25 02:32:37;;;;;;;6.05;1.85;;;21.70;77.20;;;;;;5113083;28;20576;-69
2022/03/25 02:35:04;;;;;;;12.75;2.63;;;21.70;77.40;;;;;;5131539;28;20028;-68
2022/03/25 02:37:31;;;;;;;11.00;2.65;;;21.70;78.10;;;;;;5096294;28;20031;-68
2022/03/25 02:39:59;;;;;;;11.27;2.70;;;21.70;81.50;;;;;;5131441;28;20042;-68
2022/03/25 02:42:26;;;;;;;9.63;1.95;;;21.70;82.60;;;;;;5113511;28;20032;-68
2022/03/25 02:44:53;;;;;;;10.85;2.10;;;21.60;82.40;;;;;;5113149;28;20036;-68
2022/03/25 02:47:20;;;;;;;6.55;2.40;;;21.60;83.80;;;;;;5113218;28;20070;-69
2022/03/25 02:49:48;;;;;;;11.98;2.63;;;21.50;84.20;;;;;;5113098;28;20034;-69
2022/03/25 02:52:15;;;;;;;6.45;2.25;;;21.50;84.50;;;;;;5113529;28;20027;-69
2022/03/25 02:54:42;;;;;;;13.43;3.28;;;21.50;84.90;;;;;;5131181;28;20055;-69
2022/03/25 02:57:10;;;;;;;22.02;2.60;;;21.50;85.10;;;;;;5131076;28;20047;-70
2022/03/25 02:59:37;;;;;;;10.13;2.55;;;21.50;85.20;;;;;;5113356;28;20117;-69
2022/03/25 03:02:04;;;;;;;7.40;2.15;;;21.50;84.80;;;;;;5112759;28;20131;-71
2022/03/25 03:04:32;;;;;;;16.55;2.55;;;21.50;84.00;;;;;;5133032;27;20031;-70
2022/03/25 03:06:59;;;;;;;15.90;2.95;;;21.50;84.10;;;;;;5134822;27;20050;-70
2022/03/25 03:09:26;;;;;;;20.42;3.30;;;21.40;83.60;;;;;;5099539;27;20027;-69
2022/03/25 03:11:54;;;;;;;10.93;2.72;;;21.40;83.40;;;;;;5100332;27;20035;-69
2022/03/25 03:14:22;;;;;;;5.43;2.00;;;21.50;84.60;;;;;;5135046;27;20152;-69
2022/03/25 03:16:49;;;;;;;6.13;1.67;;;21.50;83.60;;;;;;5135027;27;20102;-69
2022/03/25 03:19:17;;;;;;;5.40;1.92;;;21.40;83.00;;;;;;5116631;27;20035;-69
2022/03/25 03:21:45;;;;;;;8.13;2.15;;;21.40;82.70;;;;;;5134698;27;20065;-70
2022/03/25 03:24:12;;;;;;;6.13;1.98;;;21.40;83.90;;;;;;5134988;27;20389;-69
2022/03/25 03:26:39;;;;;;;9.45;2.20;;;21.40;84.60;;;;;;5134894;27;20035;-69
2022/03/25 03:29:06;;;;;;;10.10;2.95;;;21.40;84.70;;;;;;5134689;27;20227;-69
2022/03/25 03:31:33;;;;;;;13.73;3.28;;;21.40;84.80;;;;;;5135254;27;20035;-69
2022/03/25 03:34:00;;;;;;;10.57;2.78;;;21.40;85.30;;;;;;5134603;27;20027;-69
2022/03/25 03:36:27;;;;;;;14.50;3.25;;;21.50;84.90;;;;;;5116508;27;20031;-69
2022/03/25 03:38:55;;;;;;;8.45;2.97;;;21.50;85.70;;;;;;5134098;27;20058;-69
2022/03/25 03:41:22;;;;;;;7.50;2.28;;;21.40;85.70;;;;;;5115966;27;20490;-69
2022/03/25 03:43:49;;;;;;;8.85;2.05;;;21.40;84.90;;;;;;5099131;27;20119;-69
2022/03/25 03:46:16;;;;;;;9.20;3.00;;;21.40;85.90;;;;;;5099280;27;20035;-69
2022/03/25 03:48:43;;;;;;;9.57;3.10;;;21.40;85.40;;;;;;5133938;27;20410;-69
2022/03/25 03:51:11;;;;;;;7.28;2.25;;;21.30;85.90;;;;;;5098771;27;20389;-69
2022/03/25 03:53:38;;;;;;;12.10;3.03;;;21.30;85.20;;;;;;5116319;27;20023;-69
2022/03/25 03:56:06;;;;;;;12.60;2.78;;;21.30;85.10;;;;;;5116056;27;20481;-69
2022/03/25 03:58:33;;;;;;;10.43;2.58;;;21.30;84.70;;;;;;5134309;27;20088;-70
2022/03/25 04:01:00;;;;;;;9.02;2.65;;;21.30;85.10;;;;;;5115522;27;20545;-68
2022/03/25 04:03:29;;;;;;;6.75;2.40;;;21.30;85.70;;;;;;5115253;27;20390;-69
2022/03/25 04:05:57;;;;;;;10.70;2.42;;;21.30;85.60;;;;;;5133879;27;20039;-69
2022/03/25 04:08:24;;;;;;;13.82;2.78;;;21.30;85.90;;;;;;5133702;27;20104;-69
2022/03/25 04:10:52;;;;;;;10.13;2.78;;;21.30;85.80;;;;;;5115565;27;20565;-69
2022/03/25 04:13:19;;;;;;;15.82;2.90;;;21.20;85.10;;;;;;5133866;27;20039;-69
2022/03/25 04:15:46;;;;;;;9.57;2.90;;;21.30;84.70;;;;;;5114577;27;20038;-69
2022/03/25 04:18:13;;;;;;;10.48;3.60;;;21.30;84.50;;;;;;5115207;27;20058;-69
2022/03/25 04:20:40;;;;;;;10.88;2.55;;;21.30;84.80;;;;;;5098757;27;20111;-69
2022/03/25 04:23:08;;;;;;;34.40;6.47;;;21.30;84.40;;;;;;5133896;27;20080;-69
2022/03/25 04:25:35;;;;;;;9.77;2.70;;;21.30;84.90;;;;;;5115218;27;20106;-69
2022/03/25 04:28:02;;;;;;;10.75;2.38;;;21.30;84.10;;;;;;5098312;27;20039;-69
2022/03/25 04:30:32;;;;;;;8.68;2.38;;;21.40;84.30;;;;;;5133491;27;20023;-69
2022/03/25 04:32:59;;;;;;;9.18;2.47;;;21.40;84.60;;;;;;5098475;27;20152;-70
2022/03/25 04:35:28;;;;;;;6.32;2.28;;;21.40;85.40;;;;;;5133127;27;20027;-69
2022/03/25 04:37:55;;;;;;;8.32;2.13;;;21.50;83.80;;;;;;5133356;27;20042;-69
2022/03/25 04:40:23;;;;;;;9.65;2.70;;;21.50;84.70;;;;;;5113871;27;20038;-68
2022/03/25 04:42:51;;;;;;;9.40;2.38;;;21.60;85.30;;;;;;5132905;27;20038;-68
2022/03/25 04:45:19;;;;;;;10.00;2.20;;;21.70;84.60;;;;;;5094061;27;20027;-72
2022/03/25 04:47:46;;;;;;;8.23;1.90;;;21.70;84.10;;;;;;5113051;27;20562;-71
2022/03/25 04:50:13;;;;;;;7.65;2.38;;;21.60;84.10;;;;;;5120210;27;20162;-72
2022/03/25 04:52:40;;;;;;;9.90;2.20;;;21.60;85.10;;;;;;5114836;27;20458;-72
2022/03/25 04:55:09;;;;;;;13.07;2.10;;;21.50;85.50;;;;;;5114469;27;20039;-71
2022/03/25 04:57:36;;;;;;;7.63;1.83;;;21.50;85.80;;;;;;5097799;27;20023;-72
2022/03/25 05:00:04;;;;;;;7.03;2.40;;;21.40;85.00;;;;;;5114191;27;20035;-72
2022/03/25 05:02:32;;;;;;;9.05;2.30;;;21.30;84.90;;;;;;5097635;27;20272;-72
2022/03/25 05:05:00;;;;;;;7.10;2.40;;;21.40;85.50;;;;;;5114660;27;20047;-72
2022/03/25 05:07:27;;;;;;;12.35;3.40;;;21.30;85.30;;;;;;5113741;27;20039;-72
2022/03/25 05:09:57;;;;;;;7.53;2.10;;;21.30;85.80;;;;;;5097600;27;20041;-72
2022/03/25 05:12:25;;;;;;;6.30;2.00;;;21.30;85.40;;;;;;5097318;27;20423;-77
2022/03/25 05:14:53;;;;;;;6.95;2.08;;;21.30;85.70;;;;;;5131882;27;20076;-72
2022/03/25 05:17:20;;;;;;;9.60;2.22;;;21.20;86.00;;;;;;5132325;27;20031;-72
2022/03/25 05:19:48;;;;;;;4.88;1.73;;;21.10;86.30;;;;;;5132286;27;20111;-73
2022/03/25 05:22:15;;;;;;;6.53;1.60;;;21.00;84.40;;;;;;5109956;27;20546;-72
2022/03/25 05:24:43;;;;;;;9.52;2.40;;;20.90;85.50;;;;;;5110921;28;20485;-71
2022/03/25 05:27:10;;;;;;;6.72;2.00;;;20.70;87.20;;;;;;5075720;28;20051;-72
2022/03/25 05:29:37;;;;;;;9.88;2.35;;;20.40;88.90;;;;;;5111054;28;20036;-73
2022/03/25 05:32:05;;;;;;;13.73;2.65;;;20.30;90.20;;;;;;5082777;27;20039;-71
2022/03/25 05:34:32;;;;;;;10.40;3.00;;;20.10;91.60;;;;;;5113588;27;20504;-71
2022/03/25 05:36:59;;;;;;;5.18;2.13;;;19.90;92.40;;;;;;5114081;27;20027;-71
2022/03/25 05:39:27;;;;;;;9.43;2.63;;;19.70;93.00;;;;;;5131641;27;20102;-70
2022/03/25 05:41:54;;;;;;;13.55;3.22;;;19.60;93.60;;;;;;5126683;27;20023;-69
2022/03/25 05:44:21;;;;;;;9.30;2.63;;;19.50;94.00;;;;;;5093796;28;20024;-70
2022/03/25 05:46:48;;;;;;;10.82;2.92;;;19.40;94.20;;;;;;5111345;28;20351;-70
2022/03/25 05:49:15;;;;;;;10.23;2.92;;;19.40;94.50;;;;;;5111506;28;20202;-71
2022/03/25 05:51:42;;;;;;;11.90;2.72;;;19.40;94.30;;;;;;5111011;28;20036;-71
2022/03/25 05:54:10;;;;;;;10.95;3.22;;;19.40;94.50;;;;;;5111463;28;20035;-70
2022/03/25 05:56:39;;;;;;;10.82;3.55;;;19.30;94.50;;;;;;5093268;28;20081;-70
2022/03/25 05:59:06;;;;;;;15.32;3.42;;;19.40;94.90;;;;;;5093019;28;20047;-69
2022/03/25 06:01:33;;;;;;;10.93;2.95;;;19.40;94.90;;;;;;5111463;28;20034;-69
2022/03/25 06:04:00;;;;;;;7.95;3.13;;;19.40;94.80;;;;;;5111237;28;20081;-69
2022/03/25 06:06:28;;;;;;;10.60;3.20;;;19.40;94.60;;;;;;5109775;28;20048;-72
2022/03/25 06:08:55;;;;;;;10.80;3.38;;;19.30;94.70;;;;;;5110156;28;20038;-72
2022/03/25 06:11:22;;;;;;;11.73;3.40;;;19.30;95.00;;;;;;5111547;28;20118;-72
2022/03/25 06:13:49;;;;;;;11.07;3.60;;;19.40;95.20;;;;;;5111231;28;20028;-72
2022/03/25 06:16:17;;;;;;;7.43;3.40;;;19.40;95.10;;;;;;5076460;28;20031;-71
2022/03/25 06:18:44;;;;;;;11.52;3.30;;;19.40;95.00;;;;;;5092956;28;20060;-71
2022/03/25 06:21:11;;;;;;;8.35;3.13;;;19.30;94.70;;;;;;5110748;28;20032;-72
2022/03/25 06:23:38;;;;;;;9.35;2.95;;;19.30;95.10;;;;;;5110715;28;20622;-72
2022/03/25 06:26:07;;;;;;;15.82;3.70;;;19.30;95.10;;;;;;5109973;28;20032;-72
2022/03/25 06:28:35;;;;;;;11.98;3.53;;;19.30;94.90;;;;;;5110926;28;20393;-72
2022/03/25 06:31:02;;;;;;;9.57;3.53;;;19.20;94.40;;;;;;5111163;28;20060;-72
2022/03/25 06:33:29;;;;;;;9.57;3.10;;;19.10;94.40;;;;;;5059579;28;20040;-70
2022/03/25 06:35:56;;;;;;;7.45;2.67;;;19.00;94.00;;;;;;5093001;28;20035;-72
2022/03/25 06:38:24;;;;;;;12.35;2.85;;;19.00;94.50;;;;;;5122455;27;20028;-71
2022/03/25 06:40:51;;;;;;;9.10;2.90;;;19.10;94.70;;;;;;5096969;28;20050;-71
2022/03/25 06:43:18;;;;;;;9.07;2.80;;;19.10;94.60;;;;;;5115393;28;20039;-72
2022/03/25 06:45:45;;;;;;;13.27;3.63;;;19.20;94.60;;;;;;5115341;28;20035;-71
2022/03/25 06:48:12;;;;;;;10.65;3.17;;;19.20;94.70;;;;;;5119551;27;20050;-71
2022/03/25 06:50:40;;;;;;;11.98;3.28;;;19.30;95.00;;;;;;5125010;27;20031;-70
2022/03/25 06:53:08;;;;;;;8.82;3.05;;;19.30;94.80;;;;;;5106507;27;20031;-71
2022/03/25 06:55:36;;;;;;;10.77;3.40;;;19.30;94.90;;;;;;5128940;27;20035;-73
2022/03/25 06:58:03;;;;;;;8.40;3.15;;;19.30;94.80;;;;;;5101992;28;20039;-73
2022/03/25 07:00:31;;;;;;;9.02;3.30;;;19.40;95.00;;;;;;5113502;28;20031;-71
2022/03/25 07:02:59;;;;;;;9.18;2.97;;;19.40;95.10;;;;;;5095030;27;20045;-70
2022/03/25 07:05:27;;;;;;;13.63;3.45;;;19.50;95.00;;;;;;5116066;27;20445;-71
2022/03/25 07:07:54;;;;;;;9.73;3.22;;;19.50;94.70;;;;;;5113519;27;20052;-72
2022/03/25 07:10:26;;;;;;;10.07;3.53;;;19.50;94.80;;;;;;5094601;28;20024;-71
2022/03/25 07:12:54;;;;;;;10.77;3.22;;;19.50;94.90;;;;;;5112742;28;20039;-72
2022/03/25 07:15:24;;;;;;;11.35;3.50;;;19.50;94.90;;;;;;5061155;28;20085;-72
2022/03/25 07:17:52;;;;;;;7.70;3.10;;;19.60;95.00;;;;;;5077243;28;20032;-72
2022/03/25 07:20:21;;;;;;;11.45;3.47;;;19.60;95.00;;;;;;5111015;28;20074;-71
2022/03/25 07:22:50;;;;;;;11.02;3.60;;;19.70;95.10;;;;;;5112363;28;20035;-71
2022/03/25 07:25:17;;;;;;;9.90;3.30;;;19.70;95.10;;;;;;5112794;28;20034;-71
2022/03/25 07:27:45;;;;;;;9.27;3.22;;;19.70;95.00;;;;;;5096431;27;20054;-71
2022/03/25 07:30:14;;;;;;;7.88;3.35;;;19.70;95.10;;;;;;5096199;28;20077;-71
2022/03/25 07:32:42;;;;;;;12.70;3.72;;;19.80;95.10;;;;;;5096002;28;20376;-70
2022/03/25 07:35:10;;;;;;;10.65;3.55;;;19.70;95.00;;;;;;5079416;28;20085;-70
2022/03/25 07:37:41;;;;;;;9.35;3.40;;;19.80;95.10;;;;;;5106192;27;20496;-71
2022/03/25 07:40:09;;;;;;;7.50;3.15;;;19.80;95.00;;;;;;5095919;28;20059;-72
2022/03/25 07:42:40;;;;;;;9.73;3.55;;;19.80;95.10;;;;;;5078968;28;20046;-70
2022/03/25 10:08:04;;;;;;;6.05;2.47;;;20.20;85.20;;;;;;5089942;27;20103;-71
2022/03/25 10:10:31;;;;;;;5.35;2.30;;;20.20;85.20;;;;;;5131949;27;20043;-72
2022/03/25 10:13:04;;;;;;;8.23;2.30;;;20.20;85.20;;;;;;5112598;27;20520;-71
2022/03/25 10:15:33;;;;;;;7.38;2.80;;;20.20;84.50;;;;;;5113080;27;20035;-72
2022/03/25 10:18:07;;;;;;;7.90;2.90;;;20.20;84.60;;;;;;5113381;28;20087;-72
2022/03/25 10:20:39;;;;;;;4.80;2.30;;;20.30;85.20;;;;;;5112359;28;20164;-72
2022/03/25 10:23:07;;;;;;;6.47;2.08;;;20.20;85.20;;;;;;5111086;28;20032;-72
2022/03/25 10:25:48;;;;;;;8.05;2.08;;;20.20;85.40;;;;;;5110635;28;20023;-72
2022/03/25 10:28:26;;;;;;;8.05;2.20;;;20.20;84.60;;;;;;5094361;28;20118;-72
2022/03/25 10:30:57;;;;;;;9.25;2.08;;;20.20;84.30;;;;;;5100347;28;20039;-72
2022/03/25 10:33:29;;;;;;;7.68;2.20;;;20.20;84.60;;;;;;5111050;28;20414;-72
2022/03/25 10:36:17;;;;;;;6.88;1.95;;;20.20;85.10;;;;;;5111335;28;20031;-74
2022/03/25 10:38:57;;;;;;;5.88;1.90;;;20.20;85.50;;;;;;5110384;28;20027;-72
2022/03/25 10:41:24;;;;;;;;;;;20.20;85.10;;;;;;5093478;28;20040;-72
2022/03/25 10:44:05;;;;;;;6.35;1.95;;;20.30;85.10;;;;;;5092611;28;19929;-71
2022/03/25 10:46:42;;;;;;;6.68;2.03;;;20.20;85.20;;;;;;5077748;28;20039;-71
2022/03/25 10:49:14;;;;;;;8.40;2.20;;;20.20;85.50;;;;;;5106102;28;20511;-71
2022/03/25 10:51:42;;;;;;;9.63;2.05;;;20.30;85.00;;;;;;5112752;28;20121;-70
2022/03/25 10:54:11;;;;;;;6.70;1.90;;;20.30;85.60;;;;;;5096219;28;20106;-72
2022/03/25 10:56:45;;;;;;;7.78;2.00;;;20.20;85.10;;;;;;5096226;28;20039;-72
2022/03/25 10:59:30;;;;;;;8.02;2.13;;;20.20;84.90;;;;;;5115045;28;20038;-72
2022/03/25 11:02:05;;;;;;;7.55;2.10;;;20.20;85.40;;;;;;5109876;28;20560;-71
2022/03/25 11:04:32;;;;;;;6.78;1.95;;;20.30;85.40;;;;;;5109625;28;20027;-72
2022/03/25 11:07:03;;;;;;;7.25;2.08;;;20.30;85.80;;;;;;5110424;28;20065;-71
2022/03/25 11:09:30;;;;;;;7.13;1.90;;;20.30;85.80;;;;;;5109821;28;20035;-71
2022/03/25 11:11:59;;;;;;;7.50;1.88;;;20.20;86.10;;;;;;5111155;28;20035;-71
2022/03/25 11:14:26;;;;;;;6.78;2.05;;;20.20;86.10;;;;;;5092693;28;20027;-71
2022/03/25 11:16:54;;;;;;;8.70;2.25;;;20.30;86.30;;;;;;5076191;28;20116;-71
2022/03/25 11:19:21;;;;;;;5.80;2.00;;;20.20;86.40;;;;;;5110799;28;20038;-72
2022/03/25 11:21:49;;;;;;;5.40;1.75;;;20.30;86.70;;;;;;5113038;28;20427;-73
2022/03/25 11:24:24;;;;;;;5.80;2.30;;;20.20;86.70;;;;;;5113016;28;20470;-73
2022/03/25 11:26:52;;;;;;;5.95;2.00;;;20.20;86.80;;;;;;5116887;27;20054;-73
2022/03/25 11:29:22;;;;;;;7.25;2.10;;;20.20;86.90;;;;;;5116319;27;20031;-72
2022/03/25 11:32:14;;;;;;;8.65;2.22;;;20.20;86.90;;;;;;5116471;27;20024;-72
2022/03/25 11:34:46;;;;;;;7.63;2.58;;;20.20;86.90;;;;;;5118094;27;20030;-71
2022/03/25 11:37:24;;;;;;;6.25;2.55;;;20.20;86.70;;;;;;5100288;27;20027;-71
2022/03/25 11:40:28;;;;;;;7.70;2.30;;;20.30;87.00;;;;;;5115954;27;20070;-71
2022/03/25 11:43:00;;;;;;;7.32;2.30;;;20.20;86.90;;;;;;5074485;27;20118;-71
2022/03/25 11:45:35;;;;;;;6.13;2.42;;;20.30;86.90;;;;;;5134503;27;20527;-70
2022/03/25 11:48:06;;;;;;;9.95;2.20;;;20.30;86.90;;;;;;5083372;27;20393;-71
2022/03/25 11:50:40;;;;;;;9.20;2.35;;;20.30;86.70;;;;;;5115921;27;20500;-76
2022/03/25 11:53:13;;;;;;;6.32;1.83;;;20.20;85.80;;;;;;5098997;27;20121;-73
2022/03/25 11:56:00;;;;;;;5.63;1.73;;;20.30;85.40;;;;;;5134903;27;20039;-72
2022/03/25 11:58:36;;;;;;;5.22;1.85;;;20.20;84.30;;;;;;5134328;27;20031;-72
2022/03/25 12:01:12;;;;;;;5.80;1.38;;;20.30;83.20;;;;;;5100398;27;20516;-72
2022/03/25 12:03:49;;;;;;;8.57;1.65;;;20.30;83.70;;;;;;5134540;27;20032;-72
2022/03/25 12:06:17;;;;;;;6.97;1.80;;;20.20;83.80;;;;;;5115824;27;20501;-73
2022/03/25 12:09:15;;;;;;;4.78;1.75;;;20.20;84.60;;;;;;5115702;27;20082;-72
2022/03/25 12:11:58;;;;;;;7.35;2.00;;;20.20;84.50;;;;;;5084135;27;20038;-72
2022/03/25 12:14:32;;;;;;;7.75;1.63;;;20.20;85.40;;;;;;5097986;27;20043;-73
2022/03/25 12:17:12;;;;;;;4.82;1.50;;;20.10;85.70;;;;;;5117019;27;20035;-73
2022/03/25 12:19:46;;;;;;;5.13;1.40;;;20.00;86.40;;;;;;5117463;27;20444;-72
2022/03/25 12:22:20;;;;;;;4.85;1.70;;;19.90;86.70;;;;;;5115190;27;20523;-73
2022/03/25 12:24:48;;;;;;;7.28;1.85;;;19.90;87.80;;;;;;5133641;27;20062;-73
2022/03/25 12:27:15;;;;;;;6.85;1.77;;;19.90;88.60;;;;;;5098596;27;20051;-73
2022/03/25 12:29:43;;;;;;;5.72;1.40;;;19.80;88.80;;;;;;5114943;27;20035;-73
2022/03/25 12:32:15;;;;;;;4.32;1.58;;;19.80;89.30;;;;;;5098985;27;20031;-72
2022/03/25 12:34:55;;;;;;;6.97;1.98;;;19.80;89.40;;;;;;5099615;27;20038;-73
2022/03/25 12:37:40;;;;;;;10.82;2.90;;;19.80;89.90;;;;;;5133378;27;20100;-73
2022/03/25 12:40:19;;;;;;;5.22;1.80;;;19.80;89.90;;;;;;5132968;27;20031;-73
2022/03/25 12:42:54;;;;;;;8.60;2.10;;;19.80;90.10;;;;;;5116396;27;20042;-73
2022/03/25 12:45:32;;;;;;;5.78;1.75;;;19.80;90.40;;;;;;5115713;27;20027;-73
2022/03/25 12:48:09;;;;;;;7.85;1.58;;;19.80;90.30;;;;;;5111229;27;20390;-73
2022/03/25 12:50:37;;;;;;;13.57;2.03;;;19.70;90.40;;;;;;5111501;28;20474;-73
2022/03/25 12:53:05;;;;;;;9.90;1.90;;;19.70;90.50;;;;;;5094758;28;20583;-72
2022/03/25 12:55:32;;;;;;;8.13;1.75;;;19.80;90.40;;;;;;5094162;28;20036;-72
2022/03/25 12:58:07;;;;;;;8.52;2.20;;;19.80;90.60;;;;;;5110834;27;20307;-72
2022/03/25 13:00:39;;;;;;;10.85;1.92;;;19.80;90.50;;;;;;5111210;28;20148;-73
2022/03/25 13:03:07;;;;;;;4.05;1.70;;;19.80;90.40;;;;;;5094958;28;20055;-73
2022/03/25 13:05:34;;;;;;;8.30;1.85;;;19.80;90.50;;;;;;5111119;28;20031;-73
2022/03/25 13:08:02;;;;;;;9.52;2.10;;;19.80;90.60;;;;;;5111127;27;20047;-73
2022/03/25 13:10:29;;;;;;;9.40;2.20;;;19.80;90.80;;;;;;5111851;28;20031;-73
2022/03/25 13:12:58;;;;;;;9.80;2.60;;;19.80;90.80;;;;;;5077256;28;20028;-73
2022/03/25 13:15:30;;;;;;;7.97;2.10;;;19.80;90.80;;;;;;5077340;28;20072;-72
2022/03/25 13:18:04;;;;;;;6.10;1.63;;;19.80;90.90;;;;;;5077089;28;20047;-73
2022/03/25 13:20:35;;;;;;;6.72;1.90;;;19.70;90.90;;;;;;5110589;28;20043;-73
2022/03/25 13:23:10;;;;;;;7.25;2.10;;;19.70;90.80;;;;;;5110695;28;20031;-73
2022/03/25 13:25:45;;;;;;;7.32;1.63;;;19.70;90.70;;;;;;5094395;28;20028;-73
2022/03/25 13:28:34;;;;;;;8.43;1.77;;;19.70;90.80;;;;;;5098070;27;20133;-73
2022/03/25 13:31:09;;;;;;;6.25;2.00;;;19.70;90.70;;;;;;5113934;27;20107;-72
2022/03/25 13:33:47;;;;;;;6.95;1.80;;;19.70;90.50;;;;;;5114129;27;20042;-72
2022/03/25 13:36:18;;;;;;;9.93;1.88;;;19.70;90.70;;;;;;5114178;27;20038;-72
2022/03/25 13:38:51;;;;;;;9.63;2.25;;;19.70;90.80;;;;;;5093262;28;20625;-72
2022/03/25 13:41:22;;;;;;;4.43;1.83;;;19.70;90.90;;;;;;5078306;28;20092;-72
2022/03/25 13:43:51;;;;;;;5.78;2.10;;;19.70;91.00;;;;;;5094258;28;20377;-72
2022/03/25 13:46:25;;;;;;;9.95;2.00;;;19.70;91.00;;;;;;5077085;28;20044;-73
2022/03/25 13:49:01;;;;;;;7.90;2.33;;;19.70;91.00;;;;;;5106904;27;20030;-73
2022/03/25 13:51:40;;;;;;;8.77;1.98;;;19.70;90.80;;;;;;5113860;27;20042;-73
2022/03/25 13:54:10;;;;;;;5.07;1.67;;;19.70;90.60;;;;;;5113798;27;20106;-73
2022/03/25 13:56:40;;;;;;;4.68;1.70;;;19.70;90.90;;;;;;5097715;27;20032;-73
2022/03/25 13:59:07;;;;;;;;;;;19.70;91.00;;;;;;5117897;27;20061;-73
2022/03/25 14:01:44;;;;;;;9.75;1.80;;;19.70;90.90;;;;;;5111597;28;19930;-72
2022/03/25 14:04:26;;;;;;;6.65;1.52;;;19.70;90.90;;;;;;5110219;28;20397;-72
2022/03/25 14:06:55;;;;;;;4.32;1.65;;;19.70;91.00;;;;;;5077035;28;20482;-73
2022/03/25 14:09:54;;;;;;;4.57;1.60;;;19.70;91.00;;;;;;5087905;28;20104;-73
2022/03/25 14:12:26;;;;;;;5.68;1.75;;;19.70;91.00;;;;;;5091984;28;20040;-73
2022/03/25 14:15:00;;;;;;;6.70;2.08;;;19.70;91.00;;;;;;5093741;28;20511;-73
2022/03/25 14:17:34;;;;;;;5.25;1.70;;;19.60;91.10;;;;;;5111441;28;20614;-73
2022/03/25 14:20:17;;;;;;;7.20;2.03;;;19.70;91.10;;;;;;5112231;28;20455;-72
2022/03/25 14:22:54;;;;;;;7.13;2.05;;;19.60;91.10;;;;;;5096955;28;20498;-73
2022/03/25 14:25:24;;;;;;;6.40;1.90;;;19.60;91.10;;;;;;5096836;28;20456;-73
2022/03/25 14:27:59;;;;;;;7.43;2.28;;;19.60;91.10;;;;;;5110868;28;20039;-72
2022/03/25 14:30:29;;;;;;;8.43;2.38;;;19.60;91.10;;;;;;5093795;28;20023;-72
2022/03/25 14:32:56;;;;;;;8.70;2.35;;;19.60;91.10;;;;;;5111196;28;20431;-72
2022/03/25 14:35:23;;;;;;;8.05;1.95;;;19.70;90.80;;;;;;5109818;28;20478;-72
2022/03/25 14:37:51;;;;;;;7.75;2.25;;;19.70;90.80;;;;;;5110239;28;20059;-72
2022/03/25 14:40:19;;;;;;;5.15;1.65;;;19.70;90.60;;;;;;5110754;28;20484;-73
2022/03/25 14:42:46;;;;;;;8.45;1.80;;;19.80;90.40;;;;;;5096600;28;20043;-73
2022/03/25 14:45:13;;;;;;;7.75;1.90;;;19.80;89.90;;;;;;5112851;28;20441;-72
2022/03/25 14:47:40;;;;;;;6.32;1.95;;;19.80;89.70;;;;;;5131110;28;20125;-72
2022/03/25 14:50:09;;;;;;;9.63;1.90;;;19.90;89.80;;;;;;5112781;28;20429;-72
2022/03/25 14:52:39;;;;;;;7.70;1.73;;;19.90;89.40;;;;;;5096947;28;20038;-73
2022/03/25 14:55:08;;;;;;;5.70;1.30;;;19.90;88.70;;;;;;5113546;28;20055;-72
2022/03/25 14:57:35;;;;;;;8.10;1.50;;;19.90;88.90;;;;;;5110722;28;20126;-73
2022/03/25 15:00:04;;;;;;;6.38;1.70;;;19.90;88.70;;;;;;5112137;28;20039;-73
2022/03/25 15:02:31;;;;;;;7.95;2.15;;;19.90;88.70;;;;;;5113740;28;20482;-73
2022/03/25 15:05:00;;;;;;;7.40;1.73;;;20.00;88.90;;;;;;5115086;28;20071;-73
2022/03/25 15:07:27;;;;;;;5.93;1.92;;;20.00;88.90;;;;;;5114824;28;20036;-73
2022/03/25 15:09:55;;;;;;;5.40;1.50;;;20.00;88.90;;;;;;5116407;27;20036;-73
2022/03/25 15:12:22;;;;;;;3.55;1.38;;;20.00;88.90;;;;;;5099930;27;20035;-73
2022/03/25 15:14:50;;;;;;;4.85;1.15;;;19.90;88.50;;;;;;5089035;28;20024;-73
2022/03/25 15:17:17;;;;;;;5.43;1.55;;;19.90;88.20;;;;;;5114469;28;20035;-73
2022/03/25 15:19:44;;;;;;;5.25;1.63;;;20.00;88.40;;;;;;5116500;27;20110;-72
2022/03/25 15:22:12;;;;;;;6.45;1.52;;;20.00;88.50;;;;;;5134882;27;20456;-73